Impacts METAR Board
IDs:

KPHX - Phoenix/Sky Harbor, AZ, US

Updated at: 1000 UTC 15 Dec 2018
Potential Impact None Slight Moderate High
Time 14/22Z 14/23Z 15/00Z 15/01Z 15/02Z 15/03Z 15/04Z 15/05Z 15/06Z 15/07Z 15/08Z 15/09Z 15/10Z
Temp65 66 66 60 57 56 53 52 52 50 52 55 50
Dewpt16 17 18 25 27 28 28 28 27 31 28 25 31
Altim30.17 30.15 30.15 30.15 30.15 30.16 30.16 30.15 30.14 30.15 30.12 30.12 30.12
VIS10 10 10 10 10 10 10 10 10 10 10 10 10
CIG250 250 250 250 250 250 250 250 250 190 190 190 180
CoverBKNBKNBKNBKNBKNBKNBKNBKNBKNBKNOVCBKNBKN
FltCatVFRVFRVFRVFRVFRVFRVFRVFRVFRVFRVFRVFRVFR
WX--------------------------
WDir701005002300220012023013000
WSpd6 6 3 0 4 0 3 0 3 3 3 0 0
WGst-- -- -- -- -- -- -- -- -- -- -- -- --
Raw hourly METARs
KPHX 142151Z 07006KT 10SM FEW200 SCT230 BKN250 18/M09 A3017 RMK AO2 SLP209 T01831089
KPHX 142251Z 10006KT 10SM FEW200 SCT230 BKN250 19/M08 A3015 RMK AO2 SLP204 T01891083
KPHX 142351Z 05003KT 10SM FEW200 SCT230 BKN250 19/M08 A3015 RMK AO2 SLP203 T01891078 10189 20128 56019
KPHX 150051Z 00000KT 10SM FEW200 SCT230 BKN250 16/M04 A3015 RMK AO2 SLP203 T01561039
KPHX 150151Z 23004KT 10SM SCT200 BKN250 14/M03 A3015 RMK AO2 SLP207 T01391028
KPHX 150251Z 00000KT 10SM SCT200 BKN250 13/M02 A3016 RMK AO2 SLP209 T01331022 53003
KPHX 150351Z 22003KT 10SM SCT200 BKN250 12/M02 A3016 RMK AO2 SLP208 T01171022
KPHX 150451Z 00000KT 10SM SCT200 BKN250 11/M02 A3015 RMK AO2 SLP207 T01111022
KPHX 150551Z 12003KT 10SM FEW150 SCT200 BKN250 11/M03 A3014 RMK AO2 SLP200 T01111028 10189 20106 58006
KPHX 150651Z 23003KT 10SM FEW160 BKN190 BKN210 10/M01 A3015 RMK AO2 SLP203 T01001006 401890056
KPHX 150751Z 13003KT 10SM SCT170 BKN190 OVC220 11/M02 A3012 RMK AO2 SLP194 T01111022
KPHX 150851Z 00000KT 10SM SCT170 BKN190 BKN220 13/M04 A3012 RMK AO2 SLP191 T01281039 58007
KPHX 150951Z 00000KT 10SM SCT160 BKN180 BKN220 10/M01 A3012 RMK AO2 SLP194 T01001006



Page loaded:  10:57 UTC  |   02:57 AM Pacific  |   03:57 AM Mountain  |   04:57 AM Central  |   05:57 AM Eastern

 

ADVISORIES

FORECASTS

FORECASTS

OBSERVATIONS

USER TOOLS

ABOUT US